Time;durP1;ratioP1;P1;durP2;ratioP2;P2;SDS_P1;SDS_P2;PMS_P1;PMS_P2;Temp;Humidity;BMP_temperature;BMP_pressure;BME280_temperature;BME280_humidity;BME280_pressure;Samples;Min_cycle;Max_cycle;Signal;HPM_P1;HPM_P2
2024/04/10 00:01:12;;;;;;;10.70;2.80;;;;;;;14.34;48.69;98937.77;105896;1253;61317;-27
2024/04/10 00:03:40;;;;;;;10.90;2.70;;;;;;;14.33;48.81;98939.77;105849;1257;61279;-27
2024/04/10 00:06:09;;;;;;;12.30;2.50;;;;;;;14.31;48.62;98939.93;105706;1251;74693;-27
2024/04/10 00:08:37;;;;;;;16.60;2.70;;;;;;;14.28;48.60;98942.53;105907;1257;74341;-27
2024/04/10 00:11:06;;;;;;;10.50;2.20;;;;;;;14.27;48.77;98944.58;105888;1253;72647;-27
2024/04/10 00:13:34;;;;;;;9.20;2.20;;;;;;;14.26;48.95;98945.80;105864;1253;61317;-27
2024/04/10 00:16:03;;;;;;;3.30;2.50;;;;;;;14.40;48.80;98946.06;105655;1258;61309;-27
2024/04/10 00:18:33;;;;;;;8.50;2.60;;;;;;;14.43;48.65;98945.59;105382;1253;74588;-27
2024/04/10 00:21:01;;;;;;;9.00;2.10;;;;;;;14.45;48.61;98947.02;105551;1253;74550;-27
2024/04/10 00:23:29;;;;;;;2.90;1.80;;;;;;;14.38;48.64;98946.91;105535;1257;71373;-27
2024/04/10 00:25:58;;;;;;;3.40;1.80;;;;;;;14.32;48.73;98945.84;105571;1257;61267;-27
2024/04/10 00:28:27;;;;;;;5.20;2.20;;;;;;;14.24;48.94;98946.02;105515;1260;61322;-27
2024/04/10 00:30:55;;;;;;;3.60;1.60;;;;;;;14.22;49.06;98951.70;105624;1259;73469;-27
2024/04/10 00:33:22;;;;;;;4.40;1.60;;;;;;;14.11;49.38;98950.78;105821;1257;74423;-27
2024/04/10 00:35:57;;;;;;;3.20;1.80;;;;;;;14.05;49.48;98948.47;105669;1256;72698;-27
2024/04/10 00:38:29;;;;;;;3.40;1.80;;;;;;;13.98;49.68;98948.44;105679;1253;61322;-27
2024/04/10 00:41:01;;;;;;;15.50;1.90;;;;;;;13.93;49.78;98952.20;105636;1258;61290;-27
2024/04/10 00:43:29;;;;;;;2.90;1.80;;;;;;;13.86;49.87;98955.31;105731;1259;74654;-27
2024/04/10 00:45:58;;;;;;;1.40;1.00;;;;;;;13.78;50.15;98958.70;105858;1258;74370;-27
2024/04/10 00:48:25;;;;;;;8.70;1.80;;;;;;;13.75;50.26;98963.16;105662;1260;71412;-27
2024/04/10 00:50:53;;;;;;;4.80;2.40;;;;;;;13.73;50.29;98963.69;105838;1257;62062;-27
2024/04/10 00:53:21;;;;;;;7.00;2.10;;;;;;;13.65;50.41;98962.52;105720;1257;61148;-27
2024/04/10 00:55:49;;;;;;;3.30;1.60;;;;;;;13.60;50.63;98964.05;105641;1258;74024;-27
2024/04/10 00:58:16;;;;;;;5.50;1.90;;;;;;;13.57;50.78;98964.92;105864;1257;74460;-27
2024/04/10 01:00:43;;;;;;;7.20;2.00;;;;;;;13.54;50.91;98958.20;105858;1257;72650;-27
2024/04/10 01:03:11;;;;;;;14.30;2.60;;;;;;;13.47;51.25;98956.20;105773;1253;61286;-27
2024/04/10 01:05:39;;;;;;;9.60;2.60;;;;;;;13.44;51.10;98954.13;105664;1251;61240;-27
2024/04/10 01:08:06;;;;;;;5.40;2.30;;;;;;;13.36;51.26;98957.02;105840;1253;74594;-27
2024/04/10 01:10:34;;;;;;;5.40;2.00;;;;;;;13.35;51.43;98959.58;105920;1257;74548;-27
2024/04/10 01:13:02;;;;;;;4.50;1.70;;;;;;;13.34;51.20;98961.40;105815;1257;72650;-28
2024/04/10 01:15:30;;;;;;;7.40;2.20;;;;;;;13.18;51.62;98964.13;105823;1253;61383;-27
2024/04/10 01:17:57;;;;;;;6.20;2.20;;;;;;;13.22;51.55;98962.39;105845;1253;61220;-27
2024/04/10 01:20:24;;;;;;;6.20;2.50;;;;;;;13.20;51.78;98965.35;105832;1253;74638;-27
2024/04/10 01:22:52;;;;;;;6.00;1.80;;;;;;;13.17;51.80;98962.48;105797;1257;74276;-27
2024/04/10 01:25:19;;;;;;;5.80;2.30;;;;;;;13.18;51.79;98962.39;105687;1253;72741;-27
2024/04/10 01:27:47;;;;;;;9.90;2.30;;;;;;;13.16;51.89;98960.80;105784;1256;61314;-27
2024/04/10 01:30:14;;;;;;;5.30;2.00;;;;;;;13.17;52.00;98964.06;105880;1257;61195;-27
2024/04/10 01:32:42;;;;;;;7.70;1.90;;;;;;;13.12;52.05;98962.63;105770;1253;74664;-27
2024/04/10 01:35:09;;;;;;;8.30;2.00;;;;;;;13.06;52.15;98968.00;105838;1257;74306;-27
2024/04/10 01:37:37;;;;;;;5.00;1.50;;;;;;;12.98;52.12;98968.57;105648;1258;72717;-27
2024/04/10 01:40:06;;;;;;;2.90;1.80;;;;;;;12.87;52.38;98967.48;105844;1253;61356;-27
2024/04/10 01:42:33;;;;;;;7.20;1.90;;;;;;;12.82;52.48;98967.59;105763;1260;61221;-27
2024/04/10 01:45:02;;;;;;;7.60;2.10;;;;;;;12.77;52.43;98965.80;105832;1253;73209;-27
2024/04/10 01:47:29;;;;;;;9.20;1.80;;;;;;;12.67;52.70;98965.15;105693;1253;74480;-27
2024/04/10 01:49:57;;;;;;;8.30;2.80;;;;;;;12.56;52.96;98966.00;105835;1258;72632;-27
2024/04/10 01:52:24;;;;;;;4.50;2.30;;;;;;;12.46;53.30;98965.43;105815;1253;61503;-27
2024/04/10 01:54:53;;;;;;;2.80;1.90;;;;;;;12.43;53.82;98966.80;105892;1251;61203;-27
2024/04/10 01:57:21;;;;;;;6.40;2.00;;;;;;;12.40;53.86;98973.47;105851;1251;74663;-27
2024/04/10 01:59:50;;;;;;;5.00;2.00;;;;;;;12.34;54.24;98975.42;105898;1257;74312;-28
2024/04/10 02:02:17;;;;;;;7.40;2.10;;;;;;;12.29;54.40;98979.48;105893;1253;70224;-28
2024/04/10 02:04:45;;;;;;;11.40;3.00;;;;;;;12.22;54.67;98978.42;105832;1257;61918;-28
2024/04/10 02:07:12;;;;;;;3.20;2.20;;;;;;;12.13;54.80;98975.89;105921;1257;61263;-28
2024/04/10 02:09:40;;;;;;;4.20;1.60;;;;;;;12.04;55.01;98977.73;105859;1253;74616;-28
2024/04/10 02:12:07;;;;;;;1.90;1.30;;;;;;;11.90;55.48;98976.67;105677;1254;73481;-27
2024/04/10 02:14:35;;;;;;;3.70;1.50;;;;;;;12.46;54.93;98978.51;105474;1257;72762;-28
2024/04/10 02:17:04;;;;;;;5.60;1.70;;;;;;;13.12;53.53;98974.82;105603;1257;61149;-28
2024/04/10 02:19:32;;;;;;;5.30;2.10;;;;;;;13.29;52.69;98971.17;105693;1253;61209;-28
2024/04/10 02:21:59;;;;;;;6.20;2.10;;;;;;;13.22;52.42;98970.00;105677;1253;74697;-28
2024/04/10 02:24:27;;;;;;;4.10;2.10;;;;;;;13.07;52.41;98964.08;105721;1257;73565;-28
2024/04/10 02:26:54;;;;;;;5.80;2.20;;;;;;;12.87;52.62;98963.45;105676;1252;72599;-28
2024/04/10 02:29:22;;;;;;;7.00;2.20;;;;;;;12.72;52.75;98964.19;105694;1252;61349;-28
2024/04/10 02:31:49;;;;;;;4.70;2.30;;;;;;;12.57;53.10;98965.30;105776;1257;61151;-28
2024/04/10 02:34:17;;;;;;;3.30;2.30;;;;;;;12.45;53.16;98967.14;105764;1259;74597;-27
2024/04/10 02:36:45;;;;;;;4.80;2.90;;;;;;;12.33;53.60;98966.31;105785;1258;74455;-28
2024/04/10 02:39:13;;;;;;;5.50;2.80;;;;;;;12.22;53.97;98967.27;105588;1252;72742;-28
2024/04/10 02:41:40;;;;;;;10.40;2.90;;;;;;;12.08;53.88;98966.59;105632;1257;61411;-28
2024/04/10 02:44:07;;;;;;;4.70;2.90;;;;;;;11.93;54.58;98969.12;105810;1257;61198;-28
2024/04/10 02:46:35;;;;;;;5.90;2.40;;;;;;;11.80;54.26;98977.39;105668;1253;74773;-27
2024/04/10 02:49:02;;;;;;;3.00;2.30;;;;;;;11.67;54.81;98970.45;105596;1259;73546;-28
2024/04/10 02:51:30;;;;;;;8.10;3.50;;;;;;;11.56;54.85;98976.60;105749;1257;72679;-28
2024/04/10 02:53:57;;;;;;;5.80;3.90;;;;;;;11.46;55.16;98977.16;105708;1253;61314;-28
2024/04/10 02:56:24;;;;;;;9.80;3.30;;;;;;;11.40;55.50;98979.58;105723;1256;61202;-28
2024/04/10 02:58:52;;;;;;;7.90;3.00;;;;;;;11.33;56.18;98979.64;105626;1253;74686;-28
2024/04/10 03:01:19;;;;;;;7.70;2.50;;;;;;;11.23;56.76;98980.50;105655;1257;74299;-28
2024/04/10 03:03:47;;;;;;;2.60;2.10;;;;;;;11.82;56.31;98974.58;105505;1253;71379;-28
2024/04/10 03:06:15;;;;;;;3.70;2.60;;;;;;;12.58;54.66;98978.48;105587;1259;61174;-28
2024/04/10 03:08:43;;;;;;;3.90;2.10;;;;;;;12.79;53.84;98977.95;105857;1257;61298;-28
2024/04/10 03:11:10;;;;;;;3.50;2.50;;;;;;;12.76;53.56;98981.77;105854;1253;74592;-28
2024/04/10 03:13:38;;;;;;;7.00;3.40;;;;;;;12.63;53.57;98979.81;105770;1256;73430;-28
2024/04/10 03:16:06;;;;;;;10.70;3.50;;;;;;;12.47;53.65;98986.13;105759;1253;72630;-28
2024/04/10 03:18:34;;;;;;;5.10;3.80;;;;;;;12.31;53.80;98988.73;105877;1255;61247;-28
2024/04/10 03:21:02;;;;;;;4.50;2.80;;;;;;;12.14;54.10;98988.53;105872;1252;61220;-28
2024/04/10 03:23:30;;;;;;;7.60;2.70;;;;;;;11.99;54.13;98986.00;105854;1253;74660;-28
2024/04/10 03:26:05;;;;;;;5.70;2.70;;;;;;;11.91;53.97;98986.64;105820;1258;73490;-28
2024/04/10 03:28:35;;;;;;;5.10;2.60;;;;;;;11.76;54.43;98986.37;105697;1258;72692;-28
2024/04/10 03:31:04;;;;;;;5.80;3.00;;;;;;;11.63;54.42;98984.52;105804;1252;61227;-27
2024/04/10 03:33:32;;;;;;;16.00;8.00;;;;;;;11.39;55.00;98991.82;105522;1253;61235;-27
2024/04/10 03:36:00;;;;;;;10.60;4.70;;;;;;;11.28;55.78;98990.97;105861;1253;74700;-27
2024/04/10 03:38:27;;;;;;;12.20;5.90;;;;;;;11.25;56.08;98987.15;105760;1254;74434;-28
2024/04/10 03:40:55;;;;;;;17.30;8.00;;;;;;;11.24;56.31;98991.23;105813;1254;72684;-28
2024/04/10 03:43:23;;;;;;;5.10;2.80;;;;;;;11.20;56.11;98992.23;105588;1257;61826;-28
2024/04/10 03:45:52;;;;;;;7.40;4.70;;;;;;;11.91;56.19;98989.58;105796;1253;61396;-28
2024/04/10 03:48:21;;;;;;;6.90;3.60;;;;;;;12.84;54.14;98994.63;105648;1258;74719;-27
2024/04/10 03:50:49;;;;;;;5.90;3.30;;;;;;;13.15;53.22;98993.72;105771;1253;74277;-28
2024/04/10 03:53:16;;;;;;;6.60;3.20;;;;;;;13.19;52.76;98995.25;105645;1253;70278;-28
2024/04/10 03:55:44;;;;;;;6.70;3.00;;;;;;;13.12;52.66;98993.77;105803;1251;61312;-28
2024/04/10 03:58:11;;;;;;;8.50;3.10;;;;;;;13.01;52.88;98990.15;105852;1253;61305;-28
2024/04/10 04:00:38;;;;;;;5.60;2.80;;;;;;;12.88;53.03;98990.73;105784;1253;74671;-28
2024/04/10 04:03:06;;;;;;;8.30;3.00;;;;;;;12.81;53.26;98990.05;105594;1256;74322;-27
2024/04/10 04:05:34;;;;;;;5.90;3.00;;;;;;;12.80;53.17;98988.92;105760;1251;71706;-28
2024/04/10 04:08:01;;;;;;;7.90;3.00;;;;;;;12.89;53.19;98988.92;105694;1258;62616;-27
2024/04/10 04:10:29;;;;;;;13.40;3.60;;;;;;;13.01;52.84;98987.62;105864;1253;61245;-28
2024/04/10 04:12:57;;;;;;;21.60;11.40;;;;;;;13.12;53.12;98988.36;105757;1253;74708;-28
2024/04/10 04:15:25;;;;;;;19.90;14.60;;;;;;;13.19;52.92;98986.33;105379;1253;74307;-27
2024/04/10 04:17:52;;;;;;;23.40;13.80;;;;;;;13.31;52.84;98986.44;105736;1257;72645;-28
2024/04/10 04:20:19;;;;;;;30.50;18.30;;;;;;;13.42;52.82;98989.96;105664;1253;61238;-28
2024/04/10 04:22:47;;;;;;;37.90;19.60;;;;;;;13.56;52.60;98985.58;105583;1253;61190;-28
2024/04/10 04:25:16;;;;;;;25.30;14.00;;;;;;;13.68;52.38;98986.67;105785;1255;74736;-27
2024/04/10 04:27:44;;;;;;;17.80;7.90;;;;;;;13.78;52.05;98986.09;105714;1253;74281;-28
2024/04/10 04:30:12;;;;;;;7.70;5.00;;;;;;;13.88;52.01;98990.55;105890;1253;70254;-27
2024/04/10 04:32:40;;;;;;;9.10;3.90;;;;;;;13.95;51.91;98991.23;105854;1259;61273;-28
2024/04/10 04:35:07;;;;;;;5.10;2.70;;;;;;;14.07;52.16;98992.24;105741;1253;61731;-28
2024/04/10 04:37:35;;;;;;;5.30;2.80;;;;;;;14.20;52.14;98991.10;105841;1253;74702;-27
2024/04/10 04:40:06;;;;;;;7.00;2.80;;;;;;;14.35;52.01;98997.73;105768;1256;74458;-27
2024/04/10 04:42:33;;;;;;;4.40;2.60;;;;;;;14.48;51.84;98997.17;105591;1256;72658;-27
2024/04/10 04:45:01;;;;;;;6.30;2.60;;;;;;;14.62;51.65;98998.22;105750;1258;61276;-27
2024/04/10 04:47:28;;;;;;;6.30;2.50;;;;;;;14.75;51.67;98997.52;105853;1258;61220;-28
2024/04/10 04:49:56;;;;;;;6.20;2.50;;;;;;;14.90;51.69;98997.60;105798;1253;74688;-27
2024/04/10 04:52:24;;;;;;;5.10;2.60;;;;;;;15.08;51.50;98996.83;105850;1258;72384;-27
2024/04/10 04:54:51;;;;;;;6.90;2.90;;;;;;;15.28;51.45;98999.70;105870;1257;72672;-27
2024/04/10 04:57:19;;;;;;;6.20;3.00;;;;;;;15.47;51.30;99000.08;105821;1253;61670;-27
2024/04/10 04:59:47;;;;;;;6.50;2.60;;;;;;;15.59;51.09;98997.77;105622;1258;61133;-28
2024/04/10 05:02:15;;;;;;;3.10;2.10;;;;;;;15.72;50.83;98992.61;105871;1259;73455;-27
2024/04/10 05:04:57;;;;;;;4.60;2.40;;;;;;;15.89;50.77;98994.69;105720;1253;74367;-27
2024/04/10 05:07:25;;;;;;;3.60;2.40;;;;;;;16.08;50.48;99000.80;105652;1253;72135;-27
2024/04/10 05:09:53;;;;;;;5.70;2.70;;;;;;;16.22;50.27;99007.61;105642;1253;62521;-28
2024/04/10 05:12:21;;;;;;;4.40;2.50;;;;;;;16.36;49.48;99006.96;105802;1253;61362;-27
2024/04/10 05:14:52;;;;;;;6.80;2.50;;;;;;;16.46;48.71;99008.88;105683;1253;74760;-27
2024/04/10 05:17:19;;;;;;;6.80;2.20;;;;;;;16.56;48.23;99013.97;105572;1260;74449;-28
2024/04/10 05:19:47;;;;;;;4.00;2.30;;;;;;;16.70;48.02;99017.45;105698;1259;74986;-27
2024/04/10 05:22:15;;;;;;;3.30;2.20;;;;;;;16.80;47.84;99020.35;105758;1251;61255;-27
2024/04/10 05:24:42;;;;;;;4.50;2.50;;;;;;;16.98;47.57;99026.40;105893;1253;61238;-27
2024/04/10 05:27:20;;;;;;;7.90;2.80;;;;;;;17.16;47.62;99025.52;105838;1259;74153;-28
2024/04/10 05:29:59;;;;;;;4.60;2.40;;;;;;;17.41;46.51;99030.66;105516;1265;75731;-27
2024/04/10 05:32:27;;;;;;;6.00;2.40;;;;;;;17.58;46.50;99035.75;105491;1258;73134;-27
2024/04/10 05:34:55;;;;;;;4.20;2.40;;;;;;;17.74;46.29;99036.78;105867;1253;61334;-28
2024/04/10 05:37:23;;;;;;;5.90;2.50;;;;;;;17.84;45.25;99042.05;105883;1257;61302;-27
2024/04/10 05:40:13;;;;;;;3.30;2.30;;;;;;;17.92;44.24;99046.38;105915;1253;74743;-27
2024/04/10 05:42:41;;;;;;;2.90;1.70;;;;;;;17.92;42.91;99051.23;105681;1260;74599;-28
2024/04/10 05:45:10;;;;;;;3.80;2.30;;;;;;;17.85;42.57;99057.60;105893;1253;73825;-27
2024/04/10 05:47:39;;;;;;;7.60;3.10;;;;;;;17.93;42.36;99050.66;105731;1257;61314;-28
2024/04/10 05:50:07;;;;;;;4.50;3.30;;;;;;;18.15;42.66;99047.39;105769;1253;61295;-28
2024/04/10 05:52:35;;;;;;;4.00;2.80;;;;;;;18.25;42.03;99047.09;105769;1260;76836;-27
2024/04/10 05:55:04;;;;;;;7.20;2.60;;;;;;;18.29;42.16;99049.84;105932;1257;74897;-28
2024/04/10 05:57:32;;;;;;;5.50;2.60;;;;;;;18.46;42.35;99052.45;105594;1261;71719;-28
2024/04/10 05:59:59;;;;;;;2.30;1.50;;;;;;;18.64;42.04;99056.80;105762;1257;61300;-28
2024/04/10 06:02:27;;;;;;;5.20;2.60;;;;;;;18.38;41.29;99052.98;105860;1253;62487;-27
2024/04/10 06:04:57;;;;;;;5.00;2.50;;;;;;;18.52;41.34;99053.89;105584;1253;75228;-27
2024/04/10 06:07:25;;;;;;;5.90;2.60;;;;;;;18.78;40.83;99052.33;105765;1259;74609;-27
2024/04/10 06:09:56;;;;;;;5.20;2.40;;;;;;;19.02;41.44;99051.54;105835;1259;71926;-27
2024/04/10 06:12:23;;;;;;;4.30;2.20;;;;;;;19.25;41.88;99056.59;105680;1253;61317;-28
2024/04/10 06:14:55;;;;;;;11.70;3.10;;;;;;;19.40;40.56;99059.23;105834;1256;61278;-28
2024/04/10 06:17:25;;;;;;;4.50;2.40;;;;;;;19.49;40.12;99058.20;105405;1262;73457;-27
2024/04/10 06:19:54;;;;;;;5.40;2.00;;;;;;;19.43;39.39;99059.30;105512;1253;75111;-28
2024/04/10 06:22:22;;;;;;;14.40;3.40;;;;;;;19.42;39.37;99060.77;105541;1251;74911;-28
2024/04/10 06:24:51;;;;;;;4.20;2.40;;;;;;;19.51;39.33;99061.61;105730;1256;61312;-28
2024/04/10 06:27:20;;;;;;;13.80;2.80;;;;;;;19.63;39.50;99061.47;105787;1253;61296;-27
2024/04/10 06:29:47;;;;;;;9.90;4.00;;;;;;;19.73;39.49;99068.52;105669;1251;72764;-27
2024/04/10 06:32:15;;;;;;;5.80;2.20;;;;;;;19.87;38.68;99066.40;105903;1256;74852;-27
2024/04/10 06:34:43;;;;;;;8.00;2.80;;;;;;;19.97;38.95;99066.82;105556;1258;72745;-28
2024/04/10 06:37:11;;;;;;;6.30;2.30;;;;;;;19.87;37.52;99068.55;105795;1256;61321;-28
2024/04/10 06:39:39;;;;;;;4.80;1.60;;;;;;;19.93;37.75;99064.58;105707;1251;61270;-28
2024/04/10 06:42:06;;;;;;;6.50;2.50;;;;;;;20.07;37.42;99066.10;105556;1251;76876;-27
2024/04/10 06:44:34;;;;;;;11.30;3.30;;;;;;;20.19;37.04;99064.90;105481;1253;76607;-27
2024/04/10 06:47:02;;;;;;;5.70;2.20;;;;;;;20.49;37.63;99062.14;105694;1258;71661;-27
2024/04/10 06:49:31;;;;;;;4.70;1.70;;;;;;;20.64;36.51;99065.38;105564;1253;61244;-27
2024/04/10 06:51:59;;;;;;;5.40;2.60;;;;;;;20.77;37.08;99065.34;105816;1257;62200;-27
2024/04/10 06:54:27;;;;;;;6.40;1.70;;;;;;;21.01;36.92;99065.33;105640;1259;73929;-27
2024/04/10 06:56:55;;;;;;;9.00;1.80;;;;;;;20.87;34.98;99064.19;105857;1257;74847;-27
2024/04/10 06:59:22;;;;;;;2.90;1.30;;;;;;;20.87;33.55;99063.99;105688;1259;72823;-27
2024/04/10 07:01:51;;;;;;;4.90;1.50;;;;;;;20.94;34.06;99065.40;105523;1253;61378;-27
2024/04/10 07:04:19;;;;;;;5.30;2.50;;;;;;;20.93;33.64;99069.21;105785;1254;61179;-27
2024/04/10 07:06:46;;;;;;;2.30;1.40;;;;;;;21.03;33.84;99069.36;105841;1254;75132;-27
2024/04/10 07:09:14;;;;;;;4.10;2.00;;;;;;;21.09;33.47;99074.10;105696;1259;74536;-27
2024/04/10 07:11:41;;;;;;;5.20;2.10;;;;;;;21.32;33.40;99076.89;105630;1252;72851;-28
2024/04/10 07:14:09;;;;;;;3.20;1.40;;;;;;;21.29;32.57;99077.08;105556;1258;61344;-26
2024/04/10 07:16:37;;;;;;;1.40;1.10;;;;;;;21.26;32.54;99078.19;105782;1257;61430;-26
2024/04/10 07:19:06;;;;;;;5.50;1.90;;;;;;;21.38;33.70;99082.02;105756;1257;73763;-28
2024/04/10 07:21:34;;;;;;;2.00;1.40;;;;;;;21.75;32.96;99082.35;105833;1253;73520;-26
2024/04/10 07:24:03;;;;;;;2.30;1.40;;;;;;;21.75;31.97;99082.92;105816;1258;73007;-25
2024/04/10 07:26:31;;;;;;;4.00;1.90;;;;;;;21.73;31.24;99084.02;105894;1253;61318;-25
2024/04/10 07:28:59;;;;;;;1.40;1.00;;;;;;;21.47;31.16;99086.19;102203;1254;5052493;-28
2024/04/10 07:31:36;;;;;;;4.70;1.70;;;;;;;21.46;31.07;99086.98;105801;1253;74566;-26
2024/04/10 07:34:04;;;;;;;5.80;2.50;;;;;;;21.78;31.39;99080.29;105704;1259;72151;-27
2024/04/10 07:36:33;;;;;;;7.10;2.00;;;;;;;22.02;31.55;99084.45;105872;1253;62281;-27
2024/04/10 07:39:07;;;;;;;7.20;1.60;;;;;;;22.23;30.96;99077.86;105821;1252;61206;-27
2024/04/10 07:41:37;;;;;;;11.00;2.30;;;;;;;22.37;31.55;99082.45;105932;1254;74781;-27
2024/04/10 07:44:06;;;;;;;4.90;1.70;;;;;;;22.33;30.51;99077.73;105643;1253;73197;-27
2024/04/10 07:46:34;;;;;;;3.20;1.90;;;;;;;22.34;30.18;99080.04;105633;1257;71652;-27
2024/04/10 07:49:02;;;;;;;3.50;1.30;;;;;;;22.54;30.52;99080.27;105724;1257;62347;-27
2024/04/10 07:51:30;;;;;;;3.30;1.30;;;;;;;22.77;30.49;99078.55;105646;1255;61231;-27
2024/04/10 07:53:58;;;;;;;2.30;1.50;;;;;;;22.94;29.95;99079.41;105483;1259;73899;-27
2024/04/10 07:56:27;;;;;;;2.00;1.60;;;;;;;23.13;29.27;99091.29;105626;1259;74670;-27
2024/04/10 07:58:55;;;;;;;4.80;1.20;;;;;;;23.13;27.94;99082.88;105334;1257;71643;-27
2024/04/10 08:01:23;;;;;;;2.30;1.10;;;;;;;23.02;27.87;99082.95;105459;1253;61334;-27
2024/04/10 08:03:51;;;;;;;2.60;1.80;;;;;;;23.10;28.11;99080.34;105627;1255;61223;-27
2024/04/10 08:06:19;;;;;;;4.30;1.90;;;;;;;23.31;27.72;99082.64;105675;1259;73630;-27
2024/04/10 08:08:47;;;;;;;5.70;1.70;;;;;;;23.54;28.15;99080.14;105637;1268;75638;-27
2024/04/10 08:11:18;;;;;;;1.30;1.00;;;;;;;23.60;27.31;99081.84;105715;1254;73453;-27
2024/04/10 08:13:47;;;;;;;2.90;1.10;;;;;;;23.55;26.98;99083.74;105749;1256;61250;-27
2024/04/10 08:16:15;;;;;;;3.00;1.40;;;;;;;23.59;26.61;99080.86;105615;1258;61673;-27
2024/04/10 08:18:45;;;;;;;2.20;1.20;;;;;;;23.39;26.60;99076.52;105617;1257;73650;-27
2024/04/10 08:21:14;;;;;;;3.40;1.70;;;;;;;23.74;26.60;99083.06;105644;1257;74833;-27
2024/04/10 08:23:43;;;;;;;3.50;1.70;;;;;;;23.72;26.84;99083.02;105538;1256;72237;-27
2024/04/10 08:26:18;;;;;;;3.10;1.10;;;;;;;24.03;26.72;99087.04;105301;1262;61400;-27
2024/04/10 08:28:48;;;;;;;4.50;1.80;;;;;;;24.14;26.24;99086.39;105317;1251;61209;-27
2024/04/10 08:31:20;;;;;;;3.50;1.40;;;;;;;24.42;25.51;99087.15;105687;1259;73685;-26
2024/04/10 08:33:49;;;;;;;5.90;1.80;;;;;;;24.50;26.15;99091.93;105671;1261;73518;-27
2024/04/10 08:36:19;;;;;;;3.50;1.90;;;;;;;24.63;24.71;99090.05;105642;1259;73165;-27
2024/04/10 08:38:47;;;;;;;2.70;1.50;;;;;;;24.51;24.71;99082.14;105616;1259;61323;-27
2024/04/10 08:41:15;;;;;;;5.30;1.60;;;;;;;24.12;24.37;99091.95;105790;1257;61240;-27
2024/04/10 08:43:44;;;;;;;3.90;1.30;;;;;;;24.06;23.90;99097.96;105725;1254;74817;-27
2024/04/10 08:46:13;;;;;;;2.20;1.30;;;;;;;24.20;22.92;99100.25;105589;1260;74760;-27
2024/04/10 08:48:42;;;;;;;3.90;1.30;;;;;;;24.13;22.07;99096.45;105456;1262;71690;-27
2024/04/10 08:51:14;;;;;;;4.50;1.30;;;;;;;24.24;22.53;99097.30;105663;1262;61575;-27
2024/04/10 08:56:17;;;;;;;2.10;1.40;;;;;;;23.75;23.08;99098.52;102504;1295;616159;-26
2024/04/10 08:58:44;;;;;;;4.40;1.60;;;;;;;23.80;23.03;99097.35;104830;1270;61185;-26
2024/04/10 09:01:28;;;;;;;7.30;1.50;;;;;;;23.96;23.62;99102.00;105088;1268;61059;-27
2024/04/10 09:03:56;;;;;;;1.30;0.90;;;;;;;24.21;22.92;99101.56;104852;1267;74195;-27
2024/04/10 09:06:23;;;;;;;3.90;1.60;;;;;;;24.59;23.90;99096.46;104791;1267;75895;-26
2024/04/10 09:09:01;;;;;;;2.80;1.50;;;;;;;24.99;23.40;99109.23;101286;1270;4926078;-27
2024/04/10 09:11:28;;;;;;;7.30;1.60;;;;;;;24.59;21.64;99102.64;104816;1272;61150;-27
2024/04/10 09:14:10;;;;;;;3.70;1.10;;;;;;;24.35;21.93;99114.46;105155;1264;74381;-27
2024/04/10 09:16:37;;;;;;;2.00;0.70;;;;;;;24.51;21.76;99113.34;104980;1269;75814;-27
2024/04/10 09:19:11;;;;;;;2.40;1.20;;;;;;;24.99;21.77;99112.19;104965;1264;71693;-27
2024/04/10 09:21:59;;;;;;;4.70;1.50;;;;;;;25.38;21.83;99109.95;104782;1264;61166;-26
2024/04/10 09:24:27;;;;;;;4.10;1.70;;;;;;;25.72;21.94;99112.50;105104;1264;61077;-29
2024/04/10 09:26:54;;;;;;;2.40;1.60;;;;;;;25.75;20.96;99107.67;104799;1267;73365;-27
2024/04/10 09:29:28;;;;;;;3.30;1.50;;;;;;;25.97;21.54;99108.33;104894;1264;73676;-27
2024/04/10 09:32:04;;;;;;;5.60;1.30;;;;;;;26.06;21.28;99108.85;105005;1264;73972;-27
2024/04/10 09:34:31;;;;;;;2.00;1.10;;;;;;;26.30;21.70;99112.08;104763;1270;61841;-28
2024/04/10 09:37:00;;;;;;;1.80;1.10;;;;;;;26.66;22.13;99108.31;104900;1269;61591;-27
2024/04/10 09:39:27;;;;;;;5.60;1.40;;;;;;;26.79;21.77;99110.46;104654;1264;73729;-27
2024/04/10 09:41:58;;;;;;;3.40;1.20;;;;;;;26.84;21.59;99110.80;105056;1264;74534;-27
2024/04/10 09:44:32;;;;;;;2.30;1.20;;;;;;;27.07;22.09;99111.23;104781;1266;74136;-27
2024/04/10 09:47:00;;;;;;;2.60;1.20;;;;;;;26.82;20.99;99116.65;104731;1267;61166;-27
2024/04/10 09:49:30;;;;;;;1.80;1.10;;;;;;;26.91;20.96;99113.31;104828;1264;61568;-27
2024/04/10 09:51:58;;;;;;;3.30;1.30;;;;;;;26.94;20.80;99112.80;104831;1269;73416;-27
2024/04/10 09:54:26;;;;;;;3.40;1.50;;;;;;;27.30;21.55;99106.60;104960;1264;73791;-27
2024/04/10 09:56:53;;;;;;;2.70;1.40;;;;;;;27.58;21.02;99108.16;104944;1264;73157;-26
2024/04/10 09:59:20;;;;;;;5.20;1.30;;;;;;;27.93;21.85;99112.83;104787;1266;61608;-27
2024/04/10 10:01:48;;;;;;;5.20;1.30;;;;;;;27.92;20.94;99100.61;104871;1270;61253;-27
2024/04/10 10:04:15;;;;;;;4.70;1.50;;;;;;;27.88;21.38;99107.32;105183;1264;75005;-28
2024/04/10 10:06:43;;;;;;;1.80;1.20;;;;;;;27.63;19.70;99104.01;104901;1267;75645;-27
2024/04/10 10:09:10;;;;;;;1.80;1.20;;;;;;;27.51;20.02;99100.96;105097;1264;72922;-28
2024/04/10 10:11:37;;;;;;;2.80;1.10;;;;;;;27.28;19.56;99106.60;105627;1254;61038;-28
2024/04/10 10:14:06;;;;;;;2.50;0.90;;;;;;;26.95;19.41;99102.36;105642;1254;61659;-31
2024/04/10 10:16:33;;;;;;;1.70;1.20;;;;;;;27.10;20.48;99111.84;105531;1258;75270;-28
2024/04/10 10:19:01;;;;;;;3.30;1.30;;;;;;;27.76;21.25;99106.94;105602;1254;75950;-27
2024/04/10 10:21:30;;;;;;;6.20;1.10;;;;;;;28.27;20.69;99107.59;105787;1254;70495;-27
2024/04/10 10:24:07;;;;;;;4.50;1.00;;;;;;;28.21;19.95;99102.36;105622;1254;61914;-27
2024/04/10 10:26:34;;;;;;;3.00;1.30;;;;;;;27.92;19.26;99106.86;105794;1257;61167;-28
2024/04/10 10:29:05;;;;;;;2.40;1.10;;;;;;;27.91;19.80;99105.23;105804;1254;75249;-27
2024/04/10 10:31:37;;;;;;;2.20;1.30;;;;;;;28.30;19.62;99108.83;105694;1259;74536;-28
2024/04/10 10:34:10;;;;;;;5.90;1.40;;;;;;;28.64;19.64;99112.62;105786;1254;72706;-28
2024/04/10 10:36:41;;;;;;;2.60;1.00;;;;;;;28.41;18.91;99113.69;105594;1254;61089;-27
2024/04/10 10:39:16;;;;;;;3.00;1.00;;;;;;;27.89;18.84;99108.69;105842;1254;61680;-28
2024/04/10 10:41:43;;;;;;;3.20;0.90;;;;;;;27.70;19.94;99117.27;105717;1254;74321;-28
2024/04/10 10:44:10;;;;;;;3.20;1.00;;;;;;;27.90;19.29;99115.14;105572;1254;74564;-28
2024/04/10 10:46:38;;;;;;;2.60;1.30;;;;;;;28.16;19.81;99119.23;105518;1253;72825;-28
2024/04/10 10:49:06;;;;;;;4.00;1.00;;;;;;;28.23;19.10;99119.13;105489;1259;61234;-28
2024/04/10 10:51:33;;;;;;;2.40;1.20;;;;;;;27.87;18.68;99115.56;105457;1259;61696;-28
2024/04/10 10:54:00;;;;;;;2.00;1.00;;;;;;;27.71;19.05;99119.88;105565;1253;75299;-28
2024/04/10 10:56:28;;;;;;;2.50;1.00;;;;;;;28.14;19.09;99121.27;105504;1259;73475;-28
2024/04/10 10:59:02;;;;;;;2.30;1.10;;;;;;;28.38;19.05;99119.46;105611;1254;72977;-28
2024/04/10 11:01:30;;;;;;;4.20;1.20;;;;;;;28.19;18.90;99116.39;105425;1254;62113;-28
2024/04/10 11:04:15;;;;;;;4.10;1.00;;;;;;;28.44;19.56;99113.09;105514;1256;61719;-27
2024/04/10 11:06:43;;;;;;;1.60;1.10;;;;;;;28.55;20.11;99109.17;105266;1254;74169;-27
2024/04/10 11:09:11;;;;;;;4.00;1.00;;;;;;;28.72;20.13;99112.13;105602;1257;73318;-28
2024/04/10 11:11:38;;;;;;;3.00;1.10;;;;;;;28.76;19.23;99112.28;105516;1254;71938;-28
2024/04/10 11:14:08;;;;;;;2.80;1.00;;;;;;;28.77;19.12;99112.09;105440;1254;61137;-28
2024/04/10 11:16:36;;;;;;;7.00;1.20;;;;;;;28.77;19.41;99110.81;105478;1254;61959;-28
2024/04/10 11:19:04;;;;;;;2.10;1.00;;;;;;;28.21;18.94;99115.77;105499;1254;75450;-28
2024/04/10 11:21:31;;;;;;;4.10;1.10;;;;;;;27.92;19.20;99112.06;105730;1254;75771;-28
2024/04/10 11:23:58;;;;;;;3.20;1.10;;;;;;;28.04;20.44;99120.11;105722;1254;71860;-27
2024/04/10 11:26:25;;;;;;;2.30;0.90;;;;;;;28.75;20.43;99118.42;105455;1254;61668;-27
2024/04/10 11:28:53;;;;;;;1.20;0.90;;;;;;;29.01;19.62;99115.20;105516;1254;61116;-28
2024/04/10 11:31:20;;;;;;;3.00;1.10;;;;;;;28.93;19.02;99113.17;105525;1254;72991;-28
2024/04/10 11:33:47;;;;;;;2.20;1.00;;;;;;;28.39;19.06;99117.86;105729;1253;75780;-27